createdAt,value
2022-09-12T00:02:43.605Z,98.21
2022-09-12T00:07:47.034Z,97.71
2022-09-12T00:12:49.975Z,97.56
2022-09-12T00:17:53.882Z,96.85
2022-09-12T00:22:57.767Z,96.21
2022-09-12T00:28:01.632Z,95.99
2022-09-12T00:33:04.991Z,95.77
2022-09-12T00:38:08.965Z,95.36
2022-09-12T00:43:31.753Z,94.60
2022-09-12T00:48:44.662Z,93.96
2022-09-12T00:53:49.898Z,94.46
2022-09-12T00:59:00.210Z,93.01
2022-09-12T01:04:04.693Z,91.33
2022-09-12T01:09:08.946Z,90.10
2022-09-12T01:14:14.377Z,89.09
2022-09-12T01:20:07.859Z,88.88
2022-09-12T01:25:16.931Z,87.91
2022-09-12T01:30:25.222Z,86.43
2022-09-12T01:35:32.131Z,86.56
2022-09-12T01:41:00.997Z,87.22
2022-09-12T01:46:17.903Z,86.93
2022-09-12T01:51:33.707Z,87.34
2022-09-12T01:56:40.699Z,87.94
2022-09-12T02:02:01.309Z,88.02
2022-09-12T02:07:16.039Z,88.23
2022-09-12T02:12:25.936Z,87.97
2022-09-12T02:17:32.186Z,88.45
2022-09-12T02:22:38.302Z,88.86
2022-09-12T02:27:56.059Z,89.22
2022-09-12T02:33:24.130Z,89.74
2022-09-12T02:38:49.135Z,90.05
2022-09-12T02:43:53.814Z,90.60
2022-09-12T02:48:58.032Z,90.79
2022-09-12T02:54:02.501Z,90.83
2022-09-12T02:59:10.433Z,91.09
2022-09-12T03:04:54.068Z,91.17
2022-09-12T03:10:23.033Z,91.21
2022-09-12T03:15:35.085Z,91.28
2022-09-12T03:20:37.815Z,92.15
2022-09-12T03:25:53.450Z,92.26
2022-09-12T03:30:56.980Z,92.11
2022-09-12T03:36:00.055Z,91.65
2022-09-12T03:41:02.890Z,91.66
2022-09-12T03:46:05.947Z,91.16
2022-09-12T03:51:10.882Z,91.25
2022-09-12T03:56:14.290Z,91.08
2022-09-12T04:01:19.814Z,91.46
2022-09-12T04:06:23.355Z,93.04
2022-09-12T04:11:26.327Z,91.82
2022-09-12T04:16:29.222Z,91.64
2022-09-12T04:21:32.350Z,91.86
2022-09-12T04:26:35.401Z,92.33
2022-09-12T04:31:38.873Z,92.21
2022-09-12T04:36:42.273Z,92.41
2022-09-12T04:41:45.178Z,92.84
2022-09-12T04:46:48.370Z,93.28
2022-09-12T04:51:53.575Z,93.13
2022-09-12T04:56:56.534Z,93.50
2022-09-12T05:01:59.492Z,93.71
2022-09-12T05:07:02.673Z,93.66
2022-09-12T05:12:06.113Z,93.87
2022-09-12T05:17:09.309Z,93.52
2022-09-12T05:22:12.094Z,93.64
2022-09-12T05:27:15.340Z,93.34
2022-09-12T05:32:18.158Z,92.94
2022-09-12T05:37:21.133Z,92.11
2022-09-12T05:42:23.943Z,91.20
2022-09-12T05:47:26.987Z,88.58
2022-09-12T05:52:29.799Z,86.00
2022-09-12T05:57:33.480Z,81.05
2022-09-12T06:02:36.367Z,76.80
2022-09-12T06:07:39.322Z,60.70
2022-09-12T06:12:43.546Z,52.95
2022-09-12T06:17:51.362Z,47.54
2022-09-12T06:22:54.507Z,41.61
2022-09-12T06:27:57.651Z,38.55
2022-09-12T06:33:00.467Z,39.38
2022-09-12T06:38:03.283Z,38.05
2022-09-12T06:43:06.118Z,38.22
2022-09-12T06:48:09.100Z,39.18
2022-09-12T06:53:11.913Z,38.08
2022-09-12T06:58:14.802Z,38.10
2022-09-12T07:03:18.363Z,35.12
2022-09-12T07:08:21.178Z,37.95
2022-09-12T07:13:24.065Z,37.45
2022-09-12T07:18:27.494Z,38.93
2022-09-12T07:23:30.825Z,36.77
2022-09-12T07:28:34.737Z,35.34
2022-09-12T07:33:38.846Z,34.88
2022-09-12T07:38:42.019Z,36.02
2022-09-12T07:43:45.981Z,36.70
2022-09-12T07:48:57.449Z,36.11
2022-09-12T07:54:00.438Z,35.39
2022-09-12T07:59:04.353Z,35.41
2022-09-12T08:04:07.561Z,36.12
2022-09-12T08:09:12.434Z,32.58
2022-09-12T08:14:17.903Z,35.40
2022-09-12T08:19:22.958Z,33.54
2022-09-12T08:24:25.791Z,36.73
2022-09-12T08:29:28.893Z,35.65
2022-09-12T08:34:31.935Z,34.17
2022-09-12T08:39:34.767Z,34.77
2022-09-12T08:44:55.925Z,35.33
2022-09-12T08:50:11.111Z,35.22
2022-09-12T08:55:40.350Z,34.28
2022-09-12T09:00:56.735Z,37.86
2022-09-12T09:06:04.078Z,39.70
2022-09-12T09:11:29.231Z,40.09
2022-09-12T09:16:41.540Z,41.73
2022-09-12T09:21:54.430Z,42.72
2022-09-12T09:27:36.922Z,46.13
2022-09-12T09:32:43.641Z,46.60
2022-09-12T09:38:02.058Z,45.51
2022-09-12T09:43:25.793Z,46.59
2022-09-12T09:48:37.407Z,48.74
2022-09-12T09:53:51.949Z,47.45
2022-09-12T09:58:55.106Z,47.49
2022-09-12T10:03:58.172Z,48.92
2022-09-12T10:09:19.905Z,51.08
2022-09-12T10:14:41.039Z,49.62
2022-09-12T10:19:45.559Z,50.59
2022-09-12T10:25:01.448Z,49.96
2022-09-12T10:30:15.995Z,48.51
2022-09-12T10:35:23.107Z,49.84
2022-09-12T10:40:36.090Z,48.43
2022-09-12T10:45:39.585Z,49.99
2022-09-12T10:50:44.274Z,47.89
2022-09-12T10:56:13.031Z,47.30
2022-09-12T11:01:40.802Z,44.30
2022-09-12T11:07:08.464Z,45.00
2022-09-12T11:12:37.457Z,42.82
2022-09-12T11:17:49.493Z,43.74
2022-09-12T11:23:30.304Z,44.21
2022-09-12T11:28:42.091Z,47.97
2022-09-12T11:33:53.933Z,47.96
2022-09-12T11:39:10.045Z,51.35
2022-09-12T11:44:28.853Z,53.09
2022-09-12T11:49:51.797Z,52.40
2022-09-12T11:55:11.339Z,53.07
2022-09-12T12:00:21.154Z,53.37
2022-09-12T12:05:32.370Z,56.14
2022-09-12T12:10:38.501Z,54.74
2022-09-12T12:15:51.688Z,56.39
2022-09-12T12:20:56.812Z,57.52
2022-09-12T12:26:02.602Z,56.64
2022-09-12T12:31:05.875Z,56.20
2022-09-12T12:36:10.326Z,52.36
2022-09-12T12:41:19.499Z,52.28
2022-09-12T12:46:25.765Z,52.07
2022-09-12T12:51:49.963Z,49.10
2022-09-12T12:57:13.604Z,49.47
2022-09-12T13:02:29.253Z,47.52
2022-09-12T13:07:39.010Z,44.16
2022-09-12T13:12:49.226Z,41.44
2022-09-12T13:17:52.885Z,42.77
2022-09-12T13:22:58.175Z,44.76
2022-09-12T13:28:07.056Z,43.79
2022-09-12T13:33:19.594Z,46.50
2022-09-12T13:38:47.307Z,51.14
2022-09-12T13:43:51.707Z,45.21
2022-09-12T13:48:55.338Z,44.48
2022-09-12T13:54:06.236Z,40.58
2022-09-12T13:59:13.076Z,40.50
2022-09-12T14:04:37.642Z,40.23
2022-09-12T14:09:47.334Z,41.11
2022-09-12T14:14:52.611Z,41.93
2022-09-12T14:19:59.914Z,39.29
2022-09-12T14:25:03.838Z,41.02
2022-09-12T14:30:20.240Z,40.29
2022-09-12T14:35:24.458Z,39.54
2022-09-12T14:40:28.082Z,40.59
2022-09-12T14:45:32.820Z,41.65
2022-09-12T14:50:36.635Z,44.28
2022-09-12T14:56:06.557Z,44.49
2022-09-12T15:01:12.903Z,46.88
2022-09-12T15:06:24.338Z,46.72
2022-09-12T15:11:28.455Z,46.04
2022-09-12T15:16:32.198Z,47.99
2022-09-12T15:21:35.410Z,50.01
2022-09-12T15:26:38.826Z,51.18
2022-09-12T15:31:41.762Z,53.18
2022-09-12T15:36:45.563Z,54.94
2022-09-12T15:41:49.690Z,54.66
2022-09-12T15:46:53.646Z,54.85
2022-09-12T15:52:04.116Z,56.38
2022-09-12T15:57:10.117Z,57.37
2022-09-12T16:02:14.262Z,58.45
2022-09-12T16:07:18.365Z,59.12
2022-09-12T16:12:22.365Z,59.26
2022-09-12T16:17:27.029Z,61.42
2022-09-12T16:22:31.949Z,60.90
2022-09-12T16:27:37.943Z,64.28
2022-09-12T16:32:41.746Z,63.40
2022-09-12T16:37:45.344Z,65.16
2022-09-12T16:42:49.144Z,66.33
2022-09-12T16:47:52.236Z,65.76
2022-09-12T16:52:56.170Z,66.41
2022-09-12T16:57:59.129Z,67.10
2022-09-12T17:03:02.839Z,67.48
2022-09-12T17:08:07.016Z,68.05
2022-09-12T17:13:10.993Z,68.21
2022-09-12T17:18:14.962Z,70.14
2022-09-12T17:23:18.574Z,70.01
2022-09-12T17:28:21.927Z,69.58
2022-09-12T17:33:26.786Z,69.78
2022-09-12T17:38:33.694Z,70.32
2022-09-12T17:43:38.501Z,70.32
2022-09-12T17:48:42.198Z,70.70
2022-09-12T17:53:46.113Z,70.35
2022-09-12T17:58:50.164Z,70.55
2022-09-12T18:03:58.290Z,72.16
2022-09-12T18:09:03.330Z,73.88
2022-09-12T18:14:07.063Z,73.50
2022-09-12T18:19:11.221Z,73.96
2022-09-12T18:24:15.011Z,73.26
2022-09-12T18:29:20.281Z,73.82
2022-09-12T18:34:23.847Z,75.01
2022-09-12T18:39:27.965Z,75.38
2022-09-12T18:44:32.016Z,75.49
2022-09-12T18:49:36.111Z,76.60
2022-09-12T18:54:39.496Z,76.16
2022-09-12T18:59:42.938Z,76.36
2022-09-12T19:04:46.220Z,76.34
2022-09-12T19:09:50.594Z,77.33
2022-09-12T19:14:53.906Z,77.43
2022-09-12T19:19:58.095Z,76.84
2022-09-12T19:25:00.982Z,77.30
2022-09-12T19:30:05.576Z,77.62
2022-09-12T19:35:13.215Z,77.94
2022-09-12T19:40:16.446Z,78.01
2022-09-12T19:45:20.016Z,77.61
2022-09-12T19:50:24.017Z,77.82
2022-09-12T19:55:29.044Z,77.85
2022-09-12T20:00:34.367Z,78.77
2022-09-12T20:05:42.804Z,79.74
2022-09-12T20:10:47.418Z,80.40
2022-09-12T20:15:51.113Z,80.40
2022-09-12T20:20:54.680Z,81.15
2022-09-12T20:26:02.174Z,81.86
2022-09-12T20:31:13.940Z,82.20
2022-09-12T20:36:20.785Z,81.98
2022-09-12T20:41:24.921Z,81.78
2022-09-12T20:46:29.832Z,82.23
2022-09-12T20:51:33.683Z,82.89
2022-09-12T20:56:38.278Z,83.32
2022-09-12T21:01:42.611Z,83.92
2022-09-12T21:06:46.154Z,83.41
2022-09-12T21:11:49.328Z,83.85
2022-09-12T21:16:53.276Z,83.78
2022-09-12T21:21:56.485Z,83.34
2022-09-12T21:27:04.253Z,82.92
2022-09-12T21:32:13.414Z,83.16
2022-09-12T21:37:18.242Z,82.93
2022-09-12T21:42:21.507Z,82.04
2022-09-12T21:47:25.355Z,82.44
2022-09-12T21:52:29.679Z,82.56
2022-09-12T21:57:34.678Z,82.20
2022-09-12T22:02:38.123Z,81.46
2022-09-12T22:07:41.602Z,81.69
2022-09-12T22:12:46.464Z,81.55
2022-09-12T22:17:50.269Z,81.11
2022-09-12T22:23:12.206Z,81.46
2022-09-12T22:28:16.166Z,82.50
2022-09-12T22:33:19.507Z,82.97
2022-09-12T22:38:22.943Z,83.50
2022-09-12T22:43:26.574Z,84.71
2022-09-12T22:48:30.415Z,85.12
2022-09-12T22:53:35.431Z,85.64
2022-09-12T22:58:39.037Z,85.98
2022-09-12T23:03:42.718Z,86.79
2022-09-12T23:08:45.722Z,87.24
2022-09-12T23:13:51.364Z,87.68
2022-09-12T23:18:55.230Z,88.57
2022-09-12T23:23:59.270Z,88.86
2022-09-12T23:29:04.978Z,89.12
2022-09-12T23:34:08.291Z,90.13
2022-09-12T23:39:12.302Z,90.78
2022-09-12T23:44:15.182Z,91.66
2022-09-12T23:49:19.442Z,92.35
2022-09-12T23:54:22.626Z,92.53
2022-09-12T23:59:26.584Z,92.58
